Time;durP1;ratioP1;P1;durP2;ratioP2;P2;SDS_P1;SDS_P2;PMS_P1;PMS_P2;Temp;Humidity;BMP_temperature;BMP_pressure;BME280_temperature;BME280_humidity;BME280_pressure;Samples;Min_cycle;Max_cycle;Signal;HPM_P1;HPM_P2
2022/07/31 00:01:09;;;;;;;6.03;5.57;;;19.10;1.00;;;;;;6269881;28;20358;-55
2022/07/31 00:04:12;;;;;;;5.70;5.40;;;19.10;1.00;;;;;;6287446;28;20362;-55
2022/07/31 00:07:15;;;;;;;6.63;6.23;;;19.10;1.00;;;;;;6311502;28;20312;-54
2022/07/31 00:10:19;;;;;;;6.33;5.97;;;19.10;1.00;;;;;;6308303;28;20363;-54
2022/07/31 00:13:22;;;;;;;5.53;5.33;;;19.00;1.00;;;;;;6275821;28;20238;-54
2022/07/31 00:16:45;;;;;;;6.40;6.10;;;19.00;1.00;;;;;;6259120;28;20258;-54
2022/07/31 00:19:48;;;;;;;7.47;6.70;;;18.90;1.00;;;;;;6259912;28;20230;-55
2022/07/31 00:22:53;;;;;;;6.53;6.07;;;18.90;1.00;;;;;;6267643;28;20232;-55
2022/07/31 00:25:57;;;;;;;7.43;6.97;;;18.90;1.00;;;;;;6280314;28;20229;-54
2022/07/31 00:29:00;;;;;;;7.23;6.73;;;18.80;1.00;;;;;;6285699;28;20340;-55
2022/07/31 00:32:04;;;;;;;7.50;7.00;;;18.80;1.00;;;;;;6269028;28;20321;-54
2022/07/31 00:35:07;;;;;;;7.03;6.63;;;18.80;1.00;;;;;;6303186;28;20330;-55
2022/07/31 00:38:11;;;;;;;8.20;7.60;;;18.70;1.00;;;;;;6310713;28;20287;-54
2022/07/31 00:41:39;;;;;;;7.23;6.83;;;18.70;1.00;;;;;;6260563;28;20234;-55
2022/07/31 00:44:42;;;;;;;7.20;6.70;;;18.70;1.00;;;;;;6263252;28;20343;-55
2022/07/31 00:47:49;;;;;;;6.63;6.33;;;18.60;1.00;;;;;;6279296;28;20229;-55
2022/07/31 00:50:57;;;;;;;7.00;6.60;;;18.60;1.00;;;;;;6285174;28;20653;-55
2022/07/31 00:54:00;;;;;;;7.43;7.03;;;18.60;1.00;;;;;;6279954;28;20658;-55
2022/07/31 00:57:05;;;;;;;7.30;6.80;;;18.60;1.00;;;;;;6284851;28;20736;-54
2022/07/31 01:00:10;;;;;;;7.03;6.63;;;18.50;1.00;;;;;;6284318;28;20341;-55
2022/07/31 01:03:15;;;;;;;7.40;6.90;;;18.50;1.00;;;;;;6275210;28;20320;-55
2022/07/31 01:06:18;;;;;;;7.70;7.27;;;18.50;1.00;;;;;;6277057;28;20236;-55
2022/07/31 01:09:21;;;;;;;8.03;7.53;;;18.40;1.00;;;;;;6272119;28;20300;-55
2022/07/31 01:12:30;;;;;;;7.10;6.50;;;18.40;1.00;;;;;;6260716;28;20321;-54
2022/07/31 01:15:35;;;;;;;7.67;7.07;;;18.40;1.00;;;;;;6259013;28;20400;-54
2022/07/31 01:18:40;;;;;;;7.17;6.77;;;18.40;1.00;;;;;;6271810;28;20320;-55
2022/07/31 01:21:54;;;;;;;7.63;7.07;;;18.40;1.00;;;;;;6278515;28;20734;-54
2022/07/31 01:25:08;;;;;;;7.33;6.90;;;18.40;1.00;;;;;;6275326;28;20319;-55
2022/07/31 01:28:24;;;;;;;6.73;6.33;;;18.40;1.00;;;;;;6253144;28;20700;-54
2022/07/31 01:31:34;;;;;;;7.47;6.87;;;18.30;1.00;;;;;;6258978;28;20616;-53
2022/07/31 01:34:42;;;;;;;6.97;6.57;;;18.30;1.00;;;;;;6275751;28;20314;-55
2022/07/31 01:37:49;;;;;;;6.90;6.60;;;18.20;1.00;;;;;;6306967;28;20263;-54
2022/07/31 01:40:57;;;;;;;7.00;6.60;;;18.20;1.00;;;;;;6308433;28;20320;-54
2022/07/31 01:44:03;;;;;;;6.83;6.43;;;18.20;1.00;;;;;;6282609;28;20230;-54
2022/07/31 01:47:08;;;;;;;7.77;7.13;;;18.20;1.00;;;;;;6258598;28;20442;-55
2022/07/31 01:50:12;;;;;;;7.80;7.30;;;18.10;1.00;;;;;;6259432;28;20237;-53
2022/07/31 01:53:37;;;;;;;6.60;6.23;;;18.10;1.00;;;;;;6269596;28;20242;-53
2022/07/31 01:56:42;;;;;;;6.77;6.33;;;18.10;1.00;;;;;;6283406;28;20241;-55
2022/07/31 01:59:45;;;;;;;7.50;7.10;;;18.10;1.00;;;;;;6277931;28;20225;-55
2022/07/31 02:02:51;;;;;;;8.60;7.80;;;18.00;1.00;;;;;;6277818;28;20221;-54
2022/07/31 02:05:59;;;;;;;10.53;9.63;;;18.00;1.00;;;;;;6307809;28;20314;-55
2022/07/31 02:09:05;;;;;;;8.77;8.07;;;17.90;1.00;;;;;;6307622;28;20237;-55
2022/07/31 02:12:10;;;;;;;8.50;7.90;;;18.00;1.00;;;;;;6275259;28;20316;-55
2022/07/31 02:15:16;;;;;;;7.57;7.17;;;18.00;1.00;;;;;;6257577;28;20344;-55
2022/07/31 02:18:22;;;;;;;7.83;7.37;;;17.90;1.00;;;;;;6257999;28;20244;-55
2022/07/31 02:21:25;;;;;;;7.83;7.33;;;17.90;1.00;;;;;;6258181;28;20295;-54
2022/07/31 02:24:28;;;;;;;7.53;7.03;;;17.90;1.00;;;;;;6271219;28;20332;-55
2022/07/31 02:27:32;;;;;;;7.70;7.30;;;17.90;1.00;;;;;;6283272;28;20431;-54
2022/07/31 02:30:57;;;;;;;7.50;7.00;;;17.90;1.00;;;;;;6265060;28;20400;-53
2022/07/31 02:34:02;;;;;;;8.07;7.43;;;17.90;1.00;;;;;;6282125;28;20239;-54
2022/07/31 02:37:06;;;;;;;7.30;6.80;;;17.90;1.00;;;;;;6276758;28;20255;-55
2022/07/31 02:40:11;;;;;;;7.90;7.40;;;17.80;1.00;;;;;;6273504;28;20237;-54
2022/07/31 02:43:15;;;;;;;8.60;8.00;;;17.80;1.00;;;;;;6281931;28;20645;-54
2022/07/31 02:46:19;;;;;;;7.50;7.10;;;17.80;1.00;;;;;;6276899;28;20330;-55
2022/07/31 02:49:24;;;;;;;7.87;7.20;;;17.70;1.00;;;;;;6256988;28;20368;-55
2022/07/31 02:52:28;;;;;;;7.30;6.90;;;17.70;1.00;;;;;;6259722;28;20316;-54
2022/07/31 02:55:32;;;;;;;8.13;7.53;;;17.70;1.00;;;;;;6278526;28;20321;-55
2022/07/31 02:58:38;;;;;;;8.63;8.13;;;17.60;1.00;;;;;;6257270;28;20323;-55
2022/07/31 03:01:41;;;;;;;7.50;7.00;;;17.70;1.00;;;;;;6256884;28;20648;-55
2022/07/31 03:04:46;;;;;;;8.17;7.63;;;17.60;1.00;;;;;;6289049;28;20790;-55
2022/07/31 03:07:49;;;;;;;7.70;7.30;;;17.60;1.00;;;;;;6308216;28;20302;-55
2022/07/31 03:10:52;;;;;;;7.90;7.40;;;17.60;1.00;;;;;;6299297;28;20319;-57
2022/07/31 03:13:57;;;;;;;7.17;6.87;;;17.60;1.00;;;;;;6272356;28;20290;-55
2022/07/31 03:17:01;;;;;;;7.17;6.80;;;17.50;1.00;;;;;;6282266;28;20477;-54
2022/07/31 03:20:07;;;;;;;7.57;7.17;;;17.50;1.00;;;;;;6269307;28;20512;-54
2022/07/31 03:23:13;;;;;;;8.17;7.67;;;17.50;1.00;;;;;;6265786;28;20233;-55
2022/07/31 03:26:16;;;;;;;7.93;7.33;;;17.50;1.00;;;;;;6281377;28;20237;-54
2022/07/31 03:29:19;;;;;;;8.33;7.73;;;17.50;1.00;;;;;;6273279;28;20450;-55
2022/07/31 03:32:45;;;;;;;8.60;8.00;;;17.40;1.00;;;;;;6260932;28;20682;-54
2022/07/31 03:35:49;;;;;;;8.97;8.27;;;17.40;1.00;;;;;;6280010;28;20605;-54
2022/07/31 03:38:52;;;;;;;8.67;8.07;;;17.50;1.00;;;;;;6281280;28;20370;-56
2022/07/31 03:41:57;;;;;;;8.50;7.93;;;17.40;1.00;;;;;;6278762;28;20316;-55
2022/07/31 03:45:01;;;;;;;8.73;8.13;;;17.50;1.00;;;;;;6275540;28;20299;-55
2022/07/31 03:48:05;;;;;;;9.13;8.33;;;17.50;1.00;;;;;;6280945;28;20304;-55
2022/07/31 03:51:09;;;;;;;8.77;8.17;;;17.40;1.00;;;;;;6270651;28;20237;-55
2022/07/31 03:54:13;;;;;;;8.67;8.00;;;17.40;1.00;;;;;;6281136;28;20232;-55
2022/07/31 03:57:18;;;;;;;8.93;8.23;;;17.40;1.00;;;;;;6285492;28;20288;-54
2022/07/31 04:00:25;;;;;;;9.10;8.30;;;17.40;1.00;;;;;;6279136;28;20264;-54
2022/07/31 04:03:31;;;;;;;8.30;7.80;;;17.50;1.00;;;;;;6283755;28;20317;-55
2022/07/31 04:06:36;;;;;;;8.87;8.27;;;17.50;1.00;;;;;;6285970;28;20244;-54
2022/07/31 04:09:39;;;;;;;9.20;8.60;;;17.50;1.00;;;;;;6284649;28;20256;-54
2022/07/31 04:12:42;;;;;;;8.97;8.40;;;17.50;1.00;;;;;;6282281;28;20371;-55
2022/07/31 04:15:45;;;;;;;10.10;9.30;;;17.50;1.00;;;;;;6285385;28;20241;-55
2022/07/31 04:18:48;;;;;;;9.00;8.40;;;17.50;1.00;;;;;;6283626;28;20264;-54
2022/07/31 04:21:54;;;;;;;9.03;8.30;;;17.60;1.00;;;;;;6288291;28;20312;-55
2022/07/31 04:24:57;;;;;;;10.27;9.57;;;17.60;1.00;;;;;;6284654;28;20311;-54
2022/07/31 04:28:01;;;;;;;9.40;8.80;;;17.70;1.00;;;;;;6268163;28;20353;-54
2022/07/31 04:31:04;;;;;;;8.13;7.63;;;17.70;1.00;;;;;;6277618;28;20237;-56
2022/07/31 04:34:07;;;;;;;9.67;8.90;;;17.70;1.00;;;;;;6288954;28;20233;-55
2022/07/31 04:37:12;;;;;;;8.43;7.93;;;17.70;1.00;;;;;;6286327;28;20571;-53
2022/07/31 04:40:15;;;;;;;7.73;7.30;;;17.80;1.00;;;;;;6276366;28;20234;-53
2022/07/31 04:43:19;;;;;;;9.37;8.70;;;17.80;1.00;;;;;;6285164;28;20787;-55
2022/07/31 04:46:22;;;;;;;7.67;7.17;;;17.90;1.00;;;;;;6289650;28;20305;-55
2022/07/31 04:49:25;;;;;;;8.83;8.10;;;18.00;1.00;;;;;;6278110;28;20368;-53
2022/07/31 04:52:29;;;;;;;8.77;7.87;;;18.10;1.00;;;;;;6284420;28;20237;-54
2022/07/31 04:55:32;;;;;;;8.00;7.53;;;18.20;1.00;;;;;;6281522;28;20234;-53
2022/07/31 04:58:35;;;;;;;8.73;8.13;;;18.30;1.00;;;;;;6278572;28;20234;-55
2022/07/31 05:01:39;;;;;;;8.13;7.33;;;18.40;1.00;;;;;;6283198;28;20240;-56
2022/07/31 05:04:42;;;;;;;8.03;7.27;;;18.60;1.00;;;;;;6290751;28;20240;-53
2022/07/31 05:07:46;;;;;;;9.00;8.33;;;18.70;1.00;;;;;;6292466;28;20225;-53
2022/07/31 05:14:17;;;;;;;8.33;7.70;;;19.20;1.00;;;;;;6267054;28;20240;-55
2022/07/31 05:17:20;;;;;;;8.60;7.80;;;19.50;1.00;;;;;;6287098;28;20347;-53
2022/07/31 05:20:23;;;;;;;7.77;7.37;;;19.70;1.00;;;;;;6286570;28;20253;-53
2022/07/31 05:23:28;;;;;;;8.73;7.93;;;19.90;1.00;;;;;;6281742;28;20820;-56
2022/07/31 05:26:31;;;;;;;8.27;7.77;;;20.10;1.00;;;;;;6281323;28;20639;-55
2022/07/31 05:29:34;;;;;;;8.00;7.50;;;20.40;1.00;;;;;;6289420;28;20320;-55
2022/07/31 05:32:37;;;;;;;8.20;7.60;;;20.50;1.00;;;;;;6283993;28;20446;-54
2022/07/31 05:35:40;;;;;;;7.83;7.13;;;20.70;1.00;;;;;;6280280;28;20239;-54
2022/07/31 05:38:46;;;;;;;9.53;8.13;;;21.00;1.00;;;;;;6284162;28;20244;-54
2022/07/31 05:41:51;;;;;;;10.30;8.07;;;21.20;1.00;;;;;;6284083;28;20311;-55
2022/07/31 05:44:54;;;;;;;8.17;7.57;;;21.30;1.00;;;;;;6290348;28;20256;-55
2022/07/31 05:47:57;;;;;;;12.30;7.93;;;21.60;1.00;;;;;;6287573;28;20320;-55
2022/07/31 05:51:00;;;;;;;8.40;7.90;;;21.70;1.00;;;;;;6278648;28;20388;-53
2022/07/31 05:54:08;;;;;;;7.40;6.90;;;21.80;1.00;;;;;;6281326;28;20712;-54
2022/07/31 05:57:11;;;;;;;9.23;8.13;;;22.00;1.00;;;;;;6275749;28;20236;-55
2022/07/31 06:00:35;;;;;;;7.70;7.17;;;21.90;1.00;;;;;;6283791;28;20241;-54
2022/07/31 06:03:39;;;;;;;8.90;8.20;;;22.20;1.00;;;;;;6284131;28;20426;-54
2022/07/31 06:06:54;;;;;;;8.03;7.33;;;22.20;1.00;;;;;;6283185;28;20237;-55
2022/07/31 06:09:58;;;;;;;9.13;8.20;;;22.10;1.00;;;;;;6282517;28;20244;-54
2022/07/31 06:13:02;;;;;;;9.90;7.33;;;22.20;1.00;;;;;;6279522;28;20781;-56
2022/07/31 06:16:11;;;;;;;7.47;6.77;;;22.20;1.00;;;;;;6282337;28;20320;-55
2022/07/31 06:19:14;;;;;;;7.27;6.60;;;22.10;1.00;;;;;;6279628;28;20732;-54
2022/07/31 06:22:17;;;;;;;7.00;6.53;;;22.50;1.00;;;;;;6284631;28;20263;-55
2022/07/31 06:25:22;;;;;;;7.20;6.83;;;22.80;1.00;;;;;;6287003;28;20254;-54
2022/07/31 06:28:25;;;;;;;9.20;8.37;;;23.20;1.00;;;;;;6276642;28;20233;-54
2022/07/31 06:31:48;;;;;;;7.60;6.90;;;23.10;1.00;;;;;;6282099;28;20393;-55
2022/07/31 06:34:51;;;;;;;8.37;7.77;;;23.20;1.00;;;;;;6282204;28;20280;-54
2022/07/31 06:37:54;;;;;;;8.57;7.00;;;23.40;1.00;;;;;;6280989;28;20359;-55
2022/07/31 06:40:58;;;;;;;7.83;7.10;;;23.60;1.00;;;;;;6288140;28;20713;-54
2022/07/31 06:44:01;;;;;;;8.63;7.80;;;23.80;1.00;;;;;;6283488;28;20282;-54
2022/07/31 06:47:04;;;;;;;7.77;7.27;;;24.00;1.00;;;;;;6276469;28;20366;-55
2022/07/31 06:50:16;;;;;;;8.40;7.70;;;24.10;1.00;;;;;;6286269;28;20237;-55
2022/07/31 06:53:19;;;;;;;7.57;7.07;;;24.20;1.00;;;;;;6276532;28;20307;-55
2022/07/31 06:56:23;;;;;;;8.20;7.10;;;24.40;1.00;;;;;;6254828;28;20233;-54
2022/07/31 06:59:26;;;;;;;6.87;6.40;;;24.50;1.00;;;;;;6281370;28;20237;-55
2022/07/31 07:02:42;;;;;;;6.70;6.30;;;24.70;1.00;;;;;;6276511;28;20241;-55
2022/07/31 07:05:45;;;;;;;6.77;6.27;;;24.90;1.00;;;;;;6290911;28;20227;-55
2022/07/31 07:08:48;;;;;;;6.43;6.03;;;25.10;1.00;;;;;;6287290;28;20328;-55
2022/07/31 07:11:52;;;;;;;6.80;6.17;;;25.20;1.00;;;;;;6285204;28;20335;-54
2022/07/31 07:14:57;;;;;;;5.83;5.30;;;24.80;1.00;;;;;;6281759;28;20753;-55
2022/07/31 07:18:00;;;;;;;5.87;5.50;;;24.30;1.00;;;;;;6281847;28;20286;-55
2022/07/31 07:21:04;;;;;;;5.53;5.13;;;24.40;1.00;;;;;;6279165;28;20237;-53
2022/07/31 07:24:09;;;;;;;5.73;5.40;;;24.50;1.00;;;;;;6282817;28;20487;-56
2022/07/31 07:27:13;;;;;;;5.43;5.13;;;24.60;1.00;;;;;;6276766;28;20238;-55
2022/07/31 07:30:16;;;;;;;5.30;5.20;;;24.70;1.00;;;;;;6287241;28;20741;-56
2022/07/31 07:33:19;;;;;;;5.80;5.40;;;24.70;1.00;;;;;;6295803;28;20360;-55
2022/07/31 07:36:42;;;;;;;5.77;5.20;;;24.50;1.00;;;;;;6286890;28;20249;-55
2022/07/31 07:39:45;;;;;;;7.03;5.23;;;24.10;1.00;;;;;;6291435;28;20323;-55
2022/07/31 07:42:49;;;;;;;7.07;6.03;;;24.10;1.00;;;;;;6290488;28;20549;-54
2022/07/31 07:45:52;;;;;;;6.80;6.17;;;24.10;1.00;;;;;;6283785;28;20773;-55
2022/07/31 07:48:55;;;;;;;7.20;5.43;;;24.00;1.00;;;;;;6288716;28;20251;-54
2022/07/31 07:51:58;;;;;;;6.13;5.73;;;24.00;1.00;;;;;;6293401;28;20718;-55
2022/07/31 07:55:03;;;;;;;9.60;6.00;;;24.10;1.00;;;;;;6278210;28;20749;-56
2022/07/31 07:58:07;;;;;;;5.73;5.33;;;23.90;1.00;;;;;;6293402;28;20237;-56
2022/07/31 08:01:14;;;;;;;6.67;6.07;;;24.00;1.00;;;;;;6284976;28;20251;-55
2022/07/31 08:04:17;;;;;;;5.60;5.40;;;24.10;1.00;;;;;;6294786;28;20230;-56
2022/07/31 08:07:27;;;;;;;6.07;5.47;;;24.10;1.00;;;;;;6286476;28;20320;-55
2022/07/31 08:10:44;;;;;;;4.93;4.67;;;24.30;1.00;;;;;;6275168;28;20239;-55
2022/07/31 08:13:49;;;;;;;5.30;5.20;;;24.30;1.00;;;;;;6283853;28;20779;-54
2022/07/31 08:16:53;;;;;;;5.73;5.23;;;24.40;1.00;;;;;;6287164;28;20238;-54
2022/07/31 08:19:56;;;;;;;6.13;5.73;;;24.50;1.00;;;;;;6287665;28;20268;-54
2022/07/31 08:22:59;;;;;;;6.30;5.37;;;24.40;1.00;;;;;;6285863;28;20229;-54
2022/07/31 08:26:03;;;;;;;5.50;5.30;;;24.30;1.00;;;;;;6282203;28;20468;-54
2022/07/31 08:29:09;;;;;;;5.33;5.03;;;24.30;1.00;;;;;;6290570;28;20298;-55
2022/07/31 08:32:14;;;;;;;7.03;6.47;;;24.20;1.00;;;;;;6286275;28;20225;-55
2022/07/31 08:35:18;;;;;;;6.63;5.87;;;24.10;1.00;;;;;;6289377;28;20229;-55
2022/07/31 08:38:21;;;;;;;6.37;5.87;;;24.10;1.00;;;;;;6280867;28;20859;-54
2022/07/31 08:41:24;;;;;;;6.03;5.40;;;24.10;1.00;;;;;;6283602;28;20264;-55
2022/07/31 08:44:28;;;;;;;4.93;4.73;;;24.20;1.00;;;;;;6291463;28;20614;-53
2022/07/31 08:47:35;;;;;;;5.07;4.77;;;24.40;1.00;;;;;;6285256;28;20225;-55
2022/07/31 08:50:39;;;;;;;6.20;4.63;;;24.50;1.00;;;;;;6287774;28;20372;-54
2022/07/31 08:53:44;;;;;;;5.47;5.10;;;24.70;1.00;;;;;;6286279;28;20751;-54
2022/07/31 08:56:51;;;;;;;5.97;5.67;;;24.90;1.00;;;;;;6282323;28;20280;-54
2022/07/31 08:59:56;;;;;;;5.60;5.20;;;25.10;1.00;;;;;;6290194;28;20244;-54
2022/07/31 09:02:59;;;;;;;5.00;4.60;;;25.20;1.00;;;;;;6284321;28;20229;-55
2022/07/31 09:06:03;;;;;;;4.70;4.50;;;25.30;1.00;;;;;;6281202;28;20222;-54
2022/07/31 09:09:06;;;;;;;5.30;4.90;;;25.50;1.00;;;;;;6286989;28;20999;-55
2022/07/31 09:12:10;;;;;;;5.70;5.43;;;25.70;1.00;;;;;;6280520;28;20230;-56
2022/07/31 09:15:25;;;;;;;7.77;4.90;;;25.70;1.00;;;;;;6282396;28;20274;-54
2022/07/31 09:18:28;;;;;;;4.80;4.60;;;25.80;1.00;;;;;;6281641;28;20240;-54
2022/07/31 09:21:39;;;;;;;7.13;5.23;;;25.60;1.00;;;;;;6283311;28;20244;-55
2022/07/31 09:24:42;;;;;;;5.03;4.63;;;25.70;1.00;;;;;;6269992;28;20473;-53
2022/07/31 09:27:47;;;;;;;4.80;4.70;;;25.60;1.00;;;;;;6281671;28;20722;-54
2022/07/31 09:30:55;;;;;;;4.40;4.30;;;25.70;1.00;;;;;;6283842;28;21124;-54
2022/07/31 09:33:59;;;;;;;5.10;4.73;;;25.90;1.00;;;;;;6285497;28;20233;-55
2022/07/31 09:37:09;;;;;;;4.63;4.27;;;26.10;1.00;;;;;;6275722;28;20229;-54
2022/07/31 09:40:11;;;;;;;4.73;4.50;;;26.30;1.00;;;;;;6272724;28;20383;-54
2022/07/31 09:43:18;;;;;;;5.07;4.67;;;26.40;1.00;;;;;;6252432;28;20232;-55
2022/07/31 09:46:22;;;;;;;4.60;4.30;;;26.20;1.00;;;;;;6276593;28;20805;-56
2022/07/31 09:49:31;;;;;;;5.13;4.43;;;26.20;1.00;;;;;;6270048;28;20241;-55
2022/07/31 09:52:34;;;;;;;5.77;4.50;;;26.40;1.00;;;;;;6274050;28;20233;-55
2022/07/31 09:55:37;;;;;;;5.03;4.70;;;26.50;1.00;;;;;;6285241;28;20248;-55
2022/07/31 09:58:41;;;;;;;5.47;4.60;;;26.40;1.00;;;;;;6285827;28;20233;-54
2022/07/31 10:01:47;;;;;;;4.60;4.20;;;26.40;1.00;;;;;;6283883;28;20399;-54
2022/07/31 10:04:53;;;;;;;6.27;4.33;;;26.50;1.00;;;;;;6282526;28;20282;-54
2022/07/31 10:07:58;;;;;;;7.37;4.90;;;26.60;1.00;;;;;;6290269;28;20257;-54
2022/07/31 10:11:02;;;;;;;5.07;4.87;;;26.70;1.00;;;;;;6274133;28;20285;-56
2022/07/31 10:14:12;;;;;;;4.63;4.47;;;26.80;1.00;;;;;;6275179;28;20241;-54
2022/07/31 10:17:23;;;;;;;4.87;4.63;;;26.90;1.00;;;;;;6276792;28;20375;-55
2022/07/31 10:20:27;;;;;;;4.90;4.60;;;27.00;1.00;;;;;;6281212;28;20311;-55
2022/07/31 10:23:33;;;;;;;5.10;4.80;;;27.30;1.00;;;;;;6284976;28;20311;-58
2022/07/31 10:26:36;;;;;;;4.63;4.23;;;27.40;1.00;;;;;;6292384;28;20324;-54
2022/07/31 10:30:00;;;;;;;6.23;4.50;;;27.20;1.00;;;;;;6286224;28;20706;-54
2022/07/31 10:33:05;;;;;;;4.73;4.43;;;27.10;1.00;;;;;;6278679;28;20278;-56
2022/07/31 10:36:33;;;;;;;4.87;4.53;;;27.00;1.00;;;;;;6278092;28;20229;-55
2022/07/31 10:39:45;;;;;;;4.53;4.23;;;27.20;1.00;;;;;;6289652;28;20332;-55
2022/07/31 10:42:55;;;;;;;4.50;4.13;;;27.30;1.00;;;;;;6277432;28;20322;-56
2022/07/31 10:45:57;;;;;;;5.73;4.37;;;27.40;1.00;;;;;;6282971;28;20229;-55
2022/07/31 10:49:02;;;;;;;5.30;4.97;;;27.50;1.00;;;;;;6288193;28;20725;-55
2022/07/31 10:52:10;;;;;;;4.60;4.33;;;27.40;1.00;;;;;;6293797;28;20253;-55
2022/07/31 10:55:21;;;;;;;4.77;4.30;;;27.30;1.00;;;;;;6282183;28;20239;-54
2022/07/31 10:58:24;;;;;;;4.47;4.03;;;27.40;1.00;;;;;;6277449;28;20332;-55
2022/07/31 11:01:27;;;;;;;4.57;4.27;;;27.50;1.00;;;;;;6273497;28;20386;-54
2022/07/31 11:04:32;;;;;;;4.70;4.60;;;27.40;1.00;;;;;;6284897;28;20324;-55
2022/07/31 11:07:35;;;;;;;5.67;5.30;;;27.60;1.00;;;;;;6273139;28;20230;-54
2022/07/31 11:10:49;;;;;;;4.93;4.73;;;27.70;1.00;;;;;;6289670;28;20232;-55
2022/07/31 11:13:54;;;;;;;4.67;4.33;;;27.80;1.00;;;;;;6285109;28;20237;-54
2022/07/31 11:16:57;;;;;;;4.10;3.80;;;27.60;1.00;;;;;;6281671;28;20632;-54
2022/07/31 11:20:02;;;;;;;4.70;3.90;;;27.80;1.00;;;;;;6288469;28;20347;-54
2022/07/31 11:23:08;;;;;;;4.47;4.13;;;27.90;1.00;;;;;;6294032;28;20495;-55
2022/07/31 11:26:12;;;;;;;4.90;4.50;;;28.10;1.00;;;;;;6285289;28;20264;-54
2022/07/31 11:29:26;;;;;;;4.27;4.07;;;28.20;1.00;;;;;;6285830;28;20717;-54
2022/07/31 11:32:51;;;;;;;4.27;4.07;;;28.30;1.00;;;;;;6283449;28;20244;-55
2022/07/31 11:35:56;;;;;;;4.67;4.20;;;28.20;1.00;;;;;;6277933;28;20339;-56
2022/07/31 11:38:59;;;;;;;5.00;4.40;;;28.20;1.00;;;;;;6278855;28;20526;-55
2022/07/31 11:42:06;;;;;;;4.50;4.17;;;28.10;1.00;;;;;;6280152;28;20242;-54
2022/07/31 11:45:10;;;;;;;4.30;4.20;;;28.30;1.00;;;;;;6282150;28;20757;-54
2022/07/31 11:48:15;;;;;;;4.70;4.33;;;28.30;1.00;;;;;;6280833;28;20307;-56
2022/07/31 11:51:23;;;;;;;4.37;4.07;;;28.30;1.00;;;;;;6280375;28;20393;-54
2022/07/31 11:54:26;;;;;;;4.30;4.17;;;28.30;1.00;;;;;;6291365;28;20738;-54
2022/07/31 11:57:32;;;;;;;4.03;3.70;;;28.50;1.00;;;;;;6278523;28;20349;-55
2022/07/31 12:00:57;;;;;;;4.40;4.10;;;28.70;1.00;;;;;;6285052;28;20256;-56
2022/07/31 12:04:00;;;;;;;4.77;4.37;;;28.90;1.00;;;;;;6285021;28;20237;-55
2022/07/31 12:07:12;;;;;;;4.67;4.40;;;29.30;1.00;;;;;;6285694;28;20249;-55
2022/07/31 12:10:16;;;;;;;4.10;3.83;;;29.30;1.00;;;;;;6279852;28;20238;-55
2022/07/31 12:13:20;;;;;;;5.63;4.70;;;29.20;1.00;;;;;;6281041;28;20343;-55
2022/07/31 12:16:23;;;;;;;9.07;4.10;;;29.10;1.00;;;;;;6272580;28;20229;-55
2022/07/31 12:19:27;;;;;;;4.93;4.77;;;28.90;1.00;;;;;;6281311;28;20241;-57
2022/07/31 12:22:31;;;;;;;4.60;4.30;;;28.80;1.00;;;;;;6278120;28;20240;-54
2022/07/31 12:25:42;;;;;;;4.80;4.50;;;28.60;1.00;;;;;;6287968;28;20237;-55
2022/07/31 12:28:55;;;;;;;4.83;4.43;;;28.40;1.00;;;;;;6289344;28;20745;-55
2022/07/31 12:31:58;;;;;;;5.90;4.90;;;28.30;1.00;;;;;;6284379;28;20347;-55
2022/07/31 12:35:03;;;;;;;5.00;4.70;;;28.00;1.00;;;;;;6286514;28;20233;-57
2022/07/31 12:38:07;;;;;;;4.80;4.60;;;27.80;1.00;;;;;;6287817;28;20280;-57
2022/07/31 12:41:40;;;;;;;4.73;4.30;;;27.70;1.00;;;;;;6287172;28;20247;-58
2022/07/31 12:44:47;;;;;;;5.00;4.53;;;27.70;1.00;;;;;;6283098;28;20776;-55
2022/07/31 12:47:54;;;;;;;4.60;4.33;;;27.80;1.00;;;;;;6282153;28;20461;-55
2022/07/31 12:50:57;;;;;;;5.60;5.07;;;27.70;1.00;;;;;;6287078;28;20225;-59
2022/07/31 12:54:03;;;;;;;4.50;4.40;;;27.80;1.00;;;;;;6286675;28;20310;-55
2022/07/31 12:57:06;;;;;;;5.17;4.70;;;27.90;1.00;;;;;;6279532;28;20314;-54
2022/07/31 13:00:10;;;;;;;4.90;4.57;;;28.00;1.00;;;;;;6286786;28;20252;-54
2022/07/31 13:03:15;;;;;;;5.13;4.53;;;28.10;1.00;;;;;;6285497;28;20613;-55
2022/07/31 13:06:18;;;;;;;4.37;4.17;;;28.20;1.00;;;;;;6289740;28;20928;-55
2022/07/31 13:09:22;;;;;;;5.03;4.73;;;28.10;1.00;;;;;;6291343;28;20244;-54
2022/07/31 13:12:25;;;;;;;6.30;4.90;;;28.40;1.00;;;;;;6284471;28;20395;-56
2022/07/31 13:15:31;;;;;;;5.73;4.33;;;28.70;1.00;;;;;;6284031;28;20239;-55
2022/07/31 13:18:36;;;;;;;4.33;4.03;;;28.70;1.00;;;;;;6276868;28;20248;-55
2022/07/31 13:21:39;;;;;;;4.03;3.83;;;29.00;1.00;;;;;;6282483;28;20244;-58
2022/07/31 13:24:52;;;;;;;4.20;4.00;;;29.10;1.00;;;;;;6276919;28;20325;-54
2022/07/31 13:27:55;;;;;;;3.77;3.57;;;29.00;1.00;;;;;;6284040;28;20537;-58
2022/07/31 13:30:58;;;;;;;3.83;3.53;;;29.10;1.00;;;;;;6283046;28;20275;-56
2022/07/31 13:34:01;;;;;;;3.65;3.53;;;29.30;1.00;;;;;;6285928;28;20221;-55
2022/07/31 13:37:04;;;;;;;3.25;3.05;;;29.40;1.00;;;;;;6297871;28;20402;-54
2022/07/31 13:40:10;;;;;;;3.60;3.40;;;29.30;1.00;;;;;;6283549;28;20737;-55
2022/07/31 13:43:13;;;;;;;3.97;3.65;;;29.10;1.00;;;;;;6282279;28;20849;-55
2022/07/31 13:46:16;;;;;;;4.57;3.80;;;28.90;1.00;;;;;;6284983;28;20382;-56
2022/07/31 13:49:19;;;;;;;3.90;3.70;;;28.60;1.00;;;;;;6277268;28;20337;-55
2022/07/31 13:52:22;;;;;;;3.80;3.70;;;28.40;1.00;;;;;;6288106;28;20248;-55
2022/07/31 13:55:26;;;;;;;4.17;3.47;;;28.40;1.00;;;;;;6286667;28;20265;-54
2022/07/31 13:58:29;;;;;;;3.00;2.80;;;28.60;1.00;;;;;;6289428;28;20234;-55
2022/07/31 14:01:32;;;;;;;3.67;3.37;;;28.80;1.00;;;;;;6281721;28;20249;-55
2022/07/31 14:04:55;;;;;;;3.40;3.17;;;28.90;1.00;;;;;;6284670;28;20230;-55
2022/07/31 14:07:59;;;;;;;3.53;3.43;;;29.10;1.00;;;;;;6280036;28;20225;-55
2022/07/31 14:11:23;;;;;;;3.50;3.30;;;29.20;1.00;;;;;;6276399;28;20236;-54
2022/07/31 14:14:26;;;;;;;3.80;3.58;;;29.00;1.00;;;;;;6288031;28;20312;-58
2022/07/31 14:17:30;;;;;;;6.63;3.77;;;28.50;1.00;;;;;;6290128;28;20240;-55
2022/07/31 14:20:33;;;;;;;3.53;3.33;;;28.50;1.00;;;;;;6289532;28;20245;-54
2022/07/31 14:23:36;;;;;;;4.17;3.77;;;28.40;1.00;;;;;;6282439;28;20374;-55
2022/07/31 14:26:44;;;;;;;3.30;3.20;;;28.60;1.00;;;;;;6279364;28;20364;-54
2022/07/31 14:29:47;;;;;;;4.47;3.50;;;28.80;1.00;;;;;;6282709;28;20305;-55
2022/07/31 14:32:50;;;;;;;3.70;3.47;;;28.90;1.00;;;;;;6280547;28;20608;-55
2022/07/31 14:35:53;;;;;;;3.45;3.30;;;29.10;1.00;;;;;;6279340;28;20225;-55
2022/07/31 14:38:57;;;;;;;3.63;3.30;;;29.20;1.00;;;;;;6281430;28;20298;-54
2022/07/31 14:42:01;;;;;;;3.30;3.10;;;29.40;1.00;;;;;;6276802;28;20243;-55
2022/07/31 14:45:06;;;;;;;4.13;3.92;;;29.40;1.00;;;;;;6280621;28;20337;-54
2022/07/31 14:48:09;;;;;;;3.28;3.08;;;29.60;1.00;;;;;;6288348;28;20813;-55
2022/07/31 14:51:17;;;;;;;3.53;3.30;;;29.60;1.00;;;;;;6276039;28;20241;-54
2022/07/31 14:54:20;;;;;;;3.72;3.58;;;29.60;1.00;;;;;;6279736;28;20370;-55
2022/07/31 14:57:24;;;;;;;3.35;3.20;;;29.50;1.00;;;;;;6288088;28;20256;-55
2022/07/31 15:00:27;;;;;;;3.53;3.33;;;29.50;1.00;;;;;;6273782;28;20248;-56
2022/07/31 15:03:30;;;;;;;3.42;3.22;;;29.60;1.00;;;;;;6275065;28;20306;-54
2022/07/31 15:06:34;;;;;;;3.00;2.75;;;29.60;1.00;;;;;;6289279;28;20611;-55
2022/07/31 15:09:56;;;;;;;3.13;3.03;;;29.50;1.00;;;;;;6279549;28;20267;-55
2022/07/31 15:13:01;;;;;;;3.00;2.80;;;29.40;1.00;;;;;;6278004;28;20320;-55
2022/07/31 15:16:05;;;;;;;3.10;2.83;;;29.40;1.00;;;;;;6286467;28;20237;-55
2022/07/31 15:19:08;;;;;;;2.83;2.72;;;29.60;1.00;;;;;;6282249;28;20298;-55
2022/07/31 15:22:11;;;;;;;2.85;2.65;;;29.80;1.00;;;;;;6284568;28;20225;-54
2022/07/31 15:25:19;;;;;;;3.58;2.53;;;30.10;1.00;;;;;;6280191;28;20287;-55
2022/07/31 15:28:23;;;;;;;3.40;3.20;;;30.10;1.00;;;;;;6277226;28;20256;-54
2022/07/31 15:31:26;;;;;;;3.08;2.97;;;30.00;1.00;;;;;;6280761;28;20234;-54
2022/07/31 15:34:31;;;;;;;4.93;2.90;;;29.70;1.00;;;;;;6282338;28;20672;-55
2022/07/31 15:37:35;;;;;;;3.15;2.95;;;29.80;1.00;;;;;;6269455;28;20304;-55
2022/07/31 15:40:38;;;;;;;2.88;2.72;;;29.90;1.00;;;;;;6280527;28;20239;-55
2022/07/31 15:43:42;;;;;;;2.40;2.40;;;30.10;1.00;;;;;;6275097;28;20239;-56
2022/07/31 15:46:45;;;;;;;2.95;2.85;;;30.10;1.00;;;;;;6278315;28;20298;-56
2022/07/31 15:49:48;;;;;;;2.72;2.58;;;30.00;1.00;;;;;;6289587;28;20233;-55
2022/07/31 15:52:52;;;;;;;3.85;3.53;;;29.80;1.00;;;;;;6291762;28;20766;-55
2022/07/31 15:55:55;;;;;;;2.90;2.70;;;29.60;1.00;;;;;;6292181;28;20351;-55
2022/07/31 15:59:00;;;;;;;4.43;3.03;;;29.40;1.00;;;;;;6285120;28;20469;-55
2022/07/31 16:02:03;;;;;;;4.25;2.72;;;29.10;1.00;;;;;;6283900;28;20320;-55
2022/07/31 16:05:06;;;;;;;2.90;2.80;;;29.00;1.00;;;;;;6268451;28;20801;-54
2022/07/31 16:08:23;;;;;;;3.97;2.90;;;28.80;1.00;;;;;;6283539;28;20235;-54
2022/07/31 16:11:36;;;;;;;2.97;2.87;;;28.60;1.00;;;;;;6284057;28;20593;-54
2022/07/31 16:15:01;;;;;;;2.60;2.60;;;28.60;1.00;;;;;;6290669;28;20602;-55
2022/07/31 16:18:09;;;;;;;2.83;2.73;;;28.60;1.00;;;;;;6280711;28;20726;-54
2022/07/31 16:21:20;;;;;;;3.23;2.93;;;28.60;1.00;;;;;;6284808;28;20238;-55
2022/07/31 16:24:23;;;;;;;3.60;3.40;;;28.50;1.00;;;;;;6278361;28;20237;-54